sensor_id;sensor_type;location;lat;lon;timestamp;P1;durP1;ratioP1;P2;durP2;ratioP2
51082;SDS011;37131;42.694;23.350;2023-11-21T00:00:12;114.93;;;40.23;;
51082;SDS011;37131;42.694;23.350;2023-11-21T00:02:39;117.13;;;41.60;;
51082;SDS011;37131;42.694;23.350;2023-11-21T00:05:09;118.73;;;41.00;;
51082;SDS011;37131;42.694;23.350;2023-11-21T00:07:38;116.33;;;40.43;;
51082;SDS011;37131;42.694;23.350;2023-11-21T00:10:04;118.90;;;41.63;;
51082;SDS011;37131;42.694;23.350;2023-11-21T00:12:33;118.47;;;41.20;;
51082;SDS011;37131;42.694;23.350;2023-11-21T00:14:59;116.00;;;40.17;;
51082;SDS011;37131;42.694;23.350;2023-11-21T00:17:26;115.73;;;39.97;;
51082;SDS011;37131;42.694;23.350;2023-11-21T00:19:51;117.77;;;40.80;;
51082;SDS011;37131;42.694;23.350;2023-11-21T00:22:17;119.17;;;42.20;;
51082;SDS011;37131;42.694;23.350;2023-11-21T00:24:43;118.97;;;41.73;;
51082;SDS011;37131;42.694;23.350;2023-11-21T00:27:08;119.77;;;41.93;;
51082;SDS011;37131;42.694;23.350;2023-11-21T00:29:34;124.93;;;45.33;;
51082;SDS011;37131;42.694;23.350;2023-11-21T00:31:59;120.10;;;41.27;;
51082;SDS011;37131;42.694;23.350;2023-11-21T00:34:25;122.53;;;42.37;;
51082;SDS011;37131;42.694;23.350;2023-11-21T00:36:50;119.07;;;42.57;;
51082;SDS011;37131;42.694;23.350;2023-11-21T00:39:15;128.27;;;45.27;;
51082;SDS011;37131;42.694;23.350;2023-11-21T00:41:41;118.97;;;42.33;;
51082;SDS011;37131;42.694;23.350;2023-11-21T00:44:07;138.53;;;48.60;;
51082;SDS011;37131;42.694;23.350;2023-11-21T00:46:32;119.23;;;42.67;;
51082;SDS011;37131;42.694;23.350;2023-11-21T00:48:57;129.73;;;44.10;;
51082;SDS011;37131;42.694;23.350;2023-11-21T00:51:23;127.17;;;44.13;;
51082;SDS011;37131;42.694;23.350;2023-11-21T00:53:49;119.03;;;41.77;;
51082;SDS011;37131;42.694;23.350;2023-11-21T00:56:15;123.30;;;42.83;;
51082;SDS011;37131;42.694;23.350;2023-11-21T00:58:40;119.10;;;42.30;;
51082;SDS011;37131;42.694;23.350;2023-11-21T01:01:11;115.03;;;40.33;;
51082;SDS011;37131;42.694;23.350;2023-11-21T01:03:37;120.73;;;41.47;;
51082;SDS011;37131;42.694;23.350;2023-11-21T01:06:02;119.80;;;43.00;;
51082;SDS011;37131;42.694;23.350;2023-11-21T01:08:29;121.30;;;42.73;;
51082;SDS011;37131;42.694;23.350;2023-11-21T01:10:56;118.20;;;39.90;;
51082;SDS011;37131;42.694;23.350;2023-11-21T01:13:21;118.10;;;41.50;;
51082;SDS011;37131;42.694;23.350;2023-11-21T01:15:47;114.93;;;40.43;;
51082;SDS011;37131;42.694;23.350;2023-11-21T01:18:12;120.13;;;40.67;;
51082;SDS011;37131;42.694;23.350;2023-11-21T01:20:37;112.50;;;39.57;;
51082;SDS011;37131;42.694;23.350;2023-11-21T01:23:03;113.73;;;39.77;;
51082;SDS011;37131;42.694;23.350;2023-11-21T01:25:28;119.17;;;40.50;;
51082;SDS011;37131;42.694;23.350;2023-11-21T01:27:54;115.73;;;40.47;;
51082;SDS011;37131;42.694;23.350;2023-11-21T01:30:19;118.17;;;40.73;;
51082;SDS011;37131;42.694;23.350;2023-11-21T01:32:44;115.77;;;40.43;;
51082;SDS011;37131;42.694;23.350;2023-11-21T01:35:10;120.60;;;41.63;;
51082;SDS011;37131;42.694;23.350;2023-11-21T01:37:36;112.03;;;39.03;;
51082;SDS011;37131;42.694;23.350;2023-11-21T01:40:02;120.00;;;39.53;;
51082;SDS011;37131;42.694;23.350;2023-11-21T01:42:34;118.90;;;42.00;;
51082;SDS011;37131;42.694;23.350;2023-11-21T01:45:00;117.47;;;41.33;;
51082;SDS011;37131;42.694;23.350;2023-11-21T01:47:30;115.30;;;40.23;;
51082;SDS011;37131;42.694;23.350;2023-11-21T01:49:57;117.87;;;39.93;;
51082;SDS011;37131;42.694;23.350;2023-11-21T01:52:23;112.23;;;40.00;;
51082;SDS011;37131;42.694;23.350;2023-11-21T01:54:49;114.40;;;40.80;;
51082;SDS011;37131;42.694;23.350;2023-11-21T01:57:15;118.80;;;40.27;;
51082;SDS011;37131;42.694;23.350;2023-11-21T01:59:41;117.80;;;40.50;;
51082;SDS011;37131;42.694;23.350;2023-11-21T02:02:07;116.00;;;41.17;;
51082;SDS011;37131;42.694;23.350;2023-11-21T02:04:34;113.80;;;39.53;;
51082;SDS011;37131;42.694;23.350;2023-11-21T02:07:01;115.93;;;41.20;;
51082;SDS011;37131;42.694;23.350;2023-11-21T02:09:30;116.97;;;41.13;;
51082;SDS011;37131;42.694;23.350;2023-11-21T02:11:56;116.60;;;41.07;;
51082;SDS011;37131;42.694;23.350;2023-11-21T02:14:23;118.13;;;40.50;;
51082;SDS011;37131;42.694;23.350;2023-11-21T02:16:51;114.83;;;39.00;;
51082;SDS011;37131;42.694;23.350;2023-11-21T02:19:18;114.47;;;39.13;;
51082;SDS011;37131;42.694;23.350;2023-11-21T02:21:54;117.23;;;40.50;;
51082;SDS011;37131;42.694;23.350;2023-11-21T02:24:24;119.03;;;39.57;;
51082;SDS011;37131;42.694;23.350;2023-11-21T02:26:50;113.27;;;38.60;;
51082;SDS011;37131;42.694;23.350;2023-11-21T02:29:19;115.97;;;40.40;;
51082;SDS011;37131;42.694;23.350;2023-11-21T02:31:47;111.17;;;37.70;;
51082;SDS011;37131;42.694;23.350;2023-11-21T02:34:17;116.17;;;39.57;;
51082;SDS011;37131;42.694;23.350;2023-11-21T02:36:43;115.37;;;39.90;;
51082;SDS011;37131;42.694;23.350;2023-11-21T02:39:12;119.67;;;40.57;;
51082;SDS011;37131;42.694;23.350;2023-11-21T02:41:38;116.17;;;39.73;;
51082;SDS011;37131;42.694;23.350;2023-11-21T02:44:04;114.63;;;40.03;;
51082;SDS011;37131;42.694;23.350;2023-11-21T02:46:31;116.03;;;38.90;;
51082;SDS011;37131;42.694;23.350;2023-11-21T02:48:58;113.77;;;39.70;;
51082;SDS011;37131;42.694;23.350;2023-11-21T02:51:24;112.03;;;38.37;;
51082;SDS011;37131;42.694;23.350;2023-11-21T02:53:50;118.03;;;39.83;;
51082;SDS011;37131;42.694;23.350;2023-11-21T02:56:16;116.57;;;39.47;;
51082;SDS011;37131;42.694;23.350;2023-11-21T02:58:42;116.83;;;40.03;;
51082;SDS011;37131;42.694;23.350;2023-11-21T03:01:09;123.53;;;39.53;;
51082;SDS011;37131;42.694;23.350;2023-11-21T03:03:34;112.80;;;38.87;;
51082;SDS011;37131;42.694;23.350;2023-11-21T03:06:02;116.03;;;39.93;;
51082;SDS011;37131;42.694;23.350;2023-11-21T03:08:28;116.17;;;39.40;;
51082;SDS011;37131;42.694;23.350;2023-11-21T03:10:53;115.20;;;40.53;;
51082;SDS011;37131;42.694;23.350;2023-11-21T03:13:18;112.97;;;39.77;;
51082;SDS011;37131;42.694;23.350;2023-11-21T03:15:44;115.13;;;39.60;;
51082;SDS011;37131;42.694;23.350;2023-11-21T03:18:09;111.50;;;38.57;;
51082;SDS011;37131;42.694;23.350;2023-11-21T03:20:35;115.10;;;40.17;;
51082;SDS011;37131;42.694;23.350;2023-11-21T03:23:01;112.07;;;38.83;;
51082;SDS011;37131;42.694;23.350;2023-11-21T03:25:26;112.37;;;38.60;;
51082;SDS011;37131;42.694;23.350;2023-11-21T03:27:52;114.47;;;38.50;;
51082;SDS011;37131;42.694;23.350;2023-11-21T03:30:18;112.27;;;38.30;;
51082;SDS011;37131;42.694;23.350;2023-11-21T03:32:43;112.67;;;38.70;;
51082;SDS011;37131;42.694;23.350;2023-11-21T03:35:09;114.57;;;39.83;;
51082;SDS011;37131;42.694;23.350;2023-11-21T03:37:35;113.67;;;39.27;;
51082;SDS011;37131;42.694;23.350;2023-11-21T03:40:00;111.27;;;38.10;;
51082;SDS011;37131;42.694;23.350;2023-11-21T03:42:28;112.03;;;38.80;;
51082;SDS011;37131;42.694;23.350;2023-11-21T03:44:54;112.63;;;39.00;;
51082;SDS011;37131;42.694;23.350;2023-11-21T03:47:19;115.40;;;39.80;;
51082;SDS011;37131;42.694;23.350;2023-11-21T03:49:45;113.40;;;39.17;;
51082;SDS011;37131;42.694;23.350;2023-11-21T03:52:10;121.57;;;43.53;;
51082;SDS011;37131;42.694;23.350;2023-11-21T03:54:36;110.80;;;38.67;;
51082;SDS011;37131;42.694;23.350;2023-11-21T03:57:02;113.63;;;38.77;;
51082;SDS011;37131;42.694;23.350;2023-11-21T03:59:28;114.27;;;39.23;;
51082;SDS011;37131;42.694;23.350;2023-11-21T04:01:55;113.70;;;39.87;;
51082;SDS011;37131;42.694;23.350;2023-11-21T04:04:21;113.80;;;39.23;;
51082;SDS011;37131;42.694;23.350;2023-11-21T04:06:47;112.87;;;39.37;;
51082;SDS011;37131;42.694;23.350;2023-11-21T04:09:12;112.00;;;39.23;;
51082;SDS011;37131;42.694;23.350;2023-11-21T04:11:38;115.97;;;39.70;;
51082;SDS011;37131;42.694;23.350;2023-11-21T04:14:03;111.70;;;38.73;;
51082;SDS011;37131;42.694;23.350;2023-11-21T04:16:29;112.20;;;38.83;;
51082;SDS011;37131;42.694;23.350;2023-11-21T04:18:54;137.73;;;43.23;;
51082;SDS011;37131;42.694;23.350;2023-11-21T04:21:19;130.20;;;41.03;;
51082;SDS011;37131;42.694;23.350;2023-11-21T04:23:45;121.03;;;39.90;;
51082;SDS011;37131;42.694;23.350;2023-11-21T04:26:10;115.20;;;38.40;;
51082;SDS011;37131;42.694;23.350;2023-11-21T04:28:36;119.20;;;40.30;;
51082;SDS011;37131;42.694;23.350;2023-11-21T04:31:01;125.33;;;39.27;;
51082;SDS011;37131;42.694;23.350;2023-11-21T04:33:27;116.17;;;39.20;;
51082;SDS011;37131;42.694;23.350;2023-11-21T04:35:53;117.77;;;40.17;;
51082;SDS011;37131;42.694;23.350;2023-11-21T04:38:18;126.00;;;40.97;;
51082;SDS011;37131;42.694;23.350;2023-11-21T04:40:44;120.77;;;39.63;;
51082;SDS011;37131;42.694;23.350;2023-11-21T04:43:09;120.00;;;39.70;;
51082;SDS011;37131;42.694;23.350;2023-11-21T04:45:34;121.83;;;41.23;;
51082;SDS011;37131;42.694;23.350;2023-11-21T04:48:00;121.57;;;39.80;;
51082;SDS011;37131;42.694;23.350;2023-11-21T04:50:25;130.40;;;42.43;;
51082;SDS011;37131;42.694;23.350;2023-11-21T04:52:54;118.00;;;39.33;;
51082;SDS011;37131;42.694;23.350;2023-11-21T04:55:19;121.70;;;40.03;;
51082;SDS011;37131;42.694;23.350;2023-11-21T04:57:44;120.87;;;39.60;;
51082;SDS011;37131;42.694;23.350;2023-11-21T05:00:10;121.63;;;40.80;;
51082;SDS011;37131;42.694;23.350;2023-11-21T05:02:37;120.93;;;40.13;;
51082;SDS011;37131;42.694;23.350;2023-11-21T05:05:03;125.33;;;43.40;;
51082;SDS011;37131;42.694;23.350;2023-11-21T05:07:30;120.03;;;39.97;;
51082;SDS011;37131;42.694;23.350;2023-11-21T05:09:57;120.53;;;39.27;;
51082;SDS011;37131;42.694;23.350;2023-11-21T05:12:22;121.90;;;40.27;;
51082;SDS011;37131;42.694;23.350;2023-11-21T05:14:49;125.60;;;41.53;;
51082;SDS011;37131;42.694;23.350;2023-11-21T05:17:15;124.67;;;41.53;;
51082;SDS011;37131;42.694;23.350;2023-11-21T05:19:41;122.57;;;41.20;;
51082;SDS011;37131;42.694;23.350;2023-11-21T05:22:06;122.33;;;40.97;;
51082;SDS011;37131;42.694;23.350;2023-11-21T05:24:33;120.03;;;39.13;;
51082;SDS011;37131;42.694;23.350;2023-11-21T05:26:58;124.80;;;41.73;;
51082;SDS011;37131;42.694;23.350;2023-11-21T05:29:24;125.87;;;41.23;;
51082;SDS011;37131;42.694;23.350;2023-11-21T05:31:50;122.60;;;40.20;;
51082;SDS011;37131;42.694;23.350;2023-11-21T05:34:16;124.03;;;40.37;;
51082;SDS011;37131;42.694;23.350;2023-11-21T05:36:42;121.10;;;40.17;;
51082;SDS011;37131;42.694;23.350;2023-11-21T05:39:10;121.13;;;40.00;;
51082;SDS011;37131;42.694;23.350;2023-11-21T05:41:36;122.47;;;41.50;;
51082;SDS011;37131;42.694;23.350;2023-11-21T05:44:01;129.27;;;42.40;;
51082;SDS011;37131;42.694;23.350;2023-11-21T05:46:27;125.30;;;42.23;;
51082;SDS011;37131;42.694;23.350;2023-11-21T05:48:52;122.53;;;40.30;;
51082;SDS011;37131;42.694;23.350;2023-11-21T05:51:18;128.73;;;42.33;;
51082;SDS011;37131;42.694;23.350;2023-11-21T05:53:43;126.20;;;40.70;;
51082;SDS011;37131;42.694;23.350;2023-11-21T05:56:09;126.60;;;41.63;;
51082;SDS011;37131;42.694;23.350;2023-11-21T05:58:34;123.37;;;40.60;;
51082;SDS011;37131;42.694;23.350;2023-11-21T06:01:00;130.23;;;44.47;;
51082;SDS011;37131;42.694;23.350;2023-11-21T06:03:25;123.53;;;40.00;;
51082;SDS011;37131;42.694;23.350;2023-11-21T06:05:50;128.03;;;42.60;;
51082;SDS011;37131;42.694;23.350;2023-11-21T06:08:16;132.07;;;42.27;;
51082;SDS011;37131;42.694;23.350;2023-11-21T06:10:42;123.27;;;40.27;;
51082;SDS011;37131;42.694;23.350;2023-11-21T06:13:08;126.10;;;40.67;;
51082;SDS011;37131;42.694;23.350;2023-11-21T06:15:35;127.53;;;41.13;;
51082;SDS011;37131;42.694;23.350;2023-11-21T06:18:01;129.87;;;42.33;;
51082;SDS011;37131;42.694;23.350;2023-11-21T06:20:26;125.17;;;40.97;;
51082;SDS011;37131;42.694;23.350;2023-11-21T06:22:52;128.37;;;41.67;;
51082;SDS011;37131;42.694;23.350;2023-11-21T06:25:19;130.70;;;40.43;;
51082;SDS011;37131;42.694;23.350;2023-11-21T06:27:45;132.73;;;43.77;;
51082;SDS011;37131;42.694;23.350;2023-11-21T06:30:13;131.37;;;41.13;;
51082;SDS011;37131;42.694;23.350;2023-11-21T06:32:40;126.90;;;40.93;;
51082;SDS011;37131;42.694;23.350;2023-11-21T06:35:06;120.80;;;40.00;;
51082;SDS011;37131;42.694;23.350;2023-11-21T06:37:33;118.17;;;40.57;;
51082;SDS011;37131;42.694;23.350;2023-11-21T06:39:59;125.63;;;43.93;;
51082;SDS011;37131;42.694;23.350;2023-11-21T06:42:25;124.57;;;43.27;;
51082;SDS011;37131;42.694;23.350;2023-11-21T06:44:51;121.17;;;40.50;;
51082;SDS011;37131;42.694;23.350;2023-11-21T06:47:17;123.70;;;42.63;;
51082;SDS011;37131;42.694;23.350;2023-11-21T06:49:45;123.20;;;41.83;;
51082;SDS011;37131;42.694;23.350;2023-11-21T06:52:13;122.93;;;41.83;;
51082;SDS011;37131;42.694;23.350;2023-11-21T06:54:38;106.57;;;39.87;;
51082;SDS011;37131;42.694;23.350;2023-11-21T06:57:04;115.27;;;41.63;;
51082;SDS011;37131;42.694;23.350;2023-11-21T06:59:29;107.00;;;38.60;;
51082;SDS011;37131;42.694;23.350;2023-11-21T07:01:54;116.03;;;39.00;;
51082;SDS011;37131;42.694;23.350;2023-11-21T07:04:20;118.40;;;39.83;;
51082;SDS011;37131;42.694;23.350;2023-11-21T07:06:45;115.23;;;40.40;;
51082;SDS011;37131;42.694;23.350;2023-11-21T07:09:11;111.90;;;38.70;;
51082;SDS011;37131;42.694;23.350;2023-11-21T07:11:37;119.80;;;43.10;;
51082;SDS011;37131;42.694;23.350;2023-11-21T07:14:03;114.73;;;39.80;;
51082;SDS011;37131;42.694;23.350;2023-11-21T07:16:35;114.33;;;40.03;;
51082;SDS011;37131;42.694;23.350;2023-11-21T07:19:04;114.03;;;38.83;;
51082;SDS011;37131;42.694;23.350;2023-11-21T07:21:31;118.80;;;40.40;;
51082;SDS011;37131;42.694;23.350;2023-11-21T07:23:58;123.70;;;43.77;;
51082;SDS011;37131;42.694;23.350;2023-11-21T07:26:23;117.80;;;41.13;;
51082;SDS011;37131;42.694;23.350;2023-11-21T07:28:50;120.53;;;41.87;;
51082;SDS011;37131;42.694;23.350;2023-11-21T07:31:16;115.33;;;39.33;;
51082;SDS011;37131;42.694;23.350;2023-11-21T07:33:41;121.40;;;42.00;;
51082;SDS011;37131;42.694;23.350;2023-11-21T07:36:07;117.57;;;40.57;;
51082;SDS011;37131;42.694;23.350;2023-11-21T07:38:32;121.20;;;41.73;;
51082;SDS011;37131;42.694;23.350;2023-11-21T07:40:58;122.67;;;41.47;;
51082;SDS011;37131;42.694;23.350;2023-11-21T07:43:27;122.33;;;43.60;;
51082;SDS011;37131;42.694;23.350;2023-11-21T07:45:58;121.57;;;42.90;;
51082;SDS011;37131;42.694;23.350;2023-11-21T07:48:23;122.27;;;43.30;;
51082;SDS011;37131;42.694;23.350;2023-11-21T07:50:49;126.60;;;44.67;;
51082;SDS011;37131;42.694;23.350;2023-11-21T07:53:14;126.17;;;44.40;;
51082;SDS011;37131;42.694;23.350;2023-11-21T07:55:39;127.10;;;44.57;;
51082;SDS011;37131;42.694;23.350;2023-11-21T07:58:05;125.10;;;44.33;;
51082;SDS011;37131;42.694;23.350;2023-11-21T08:00:30;129.10;;;45.07;;
51082;SDS011;37131;42.694;23.350;2023-11-21T08:02:56;120.77;;;42.00;;
51082;SDS011;37131;42.694;23.350;2023-11-21T08:05:21;123.10;;;41.63;;
51082;SDS011;37131;42.694;23.350;2023-11-21T08:07:47;127.63;;;43.30;;
51082;SDS011;37131;42.694;23.350;2023-11-21T08:10:12;126.37;;;44.07;;
51082;SDS011;37131;42.694;23.350;2023-11-21T08:12:37;131.73;;;43.07;;
51082;SDS011;37131;42.694;23.350;2023-11-21T08:15:04;128.20;;;45.73;;
51082;SDS011;37131;42.694;23.350;2023-11-21T08:17:30;133.03;;;46.47;;
51082;SDS011;37131;42.694;23.350;2023-11-21T08:19:57;127.60;;;44.10;;
51082;SDS011;37131;42.694;23.350;2023-11-21T08:22:23;125.77;;;43.00;;
51082;SDS011;37131;42.694;23.350;2023-11-21T08:24:50;128.40;;;44.17;;
51082;SDS011;37131;42.694;23.350;2023-11-21T08:27:16;129.80;;;46.00;;
51082;SDS011;37131;42.694;23.350;2023-11-21T08:29:42;132.40;;;45.20;;
51082;SDS011;37131;42.694;23.350;2023-11-21T08:32:08;160.57;;;45.27;;
51082;SDS011;37131;42.694;23.350;2023-11-21T08:34:33;129.70;;;44.33;;
51082;SDS011;37131;42.694;23.350;2023-11-21T08:36:58;131.57;;;45.27;;
51082;SDS011;37131;42.694;23.350;2023-11-21T08:39:24;126.50;;;43.37;;
51082;SDS011;37131;42.694;23.350;2023-11-21T08:41:50;128.60;;;43.67;;
51082;SDS011;37131;42.694;23.350;2023-11-21T08:44:16;133.17;;;45.47;;
51082;SDS011;37131;42.694;23.350;2023-11-21T08:46:43;131.15;;;45.47;;
51082;SDS011;37131;42.694;23.350;2023-11-21T08:49:10;134.60;;;46.27;;
51082;SDS011;37131;42.694;23.350;2023-11-21T08:51:37;134.57;;;47.53;;
51082;SDS011;37131;42.694;23.350;2023-11-21T08:54:02;142.65;;;47.38;;
51082;SDS011;37131;42.694;23.350;2023-11-21T08:56:29;134.32;;;45.72;;
51082;SDS011;37131;42.694;23.350;2023-11-21T08:58:55;139.07;;;47.33;;
51082;SDS011;37131;42.694;23.350;2023-11-21T09:01:22;135.30;;;46.35;;
51082;SDS011;37131;42.694;23.350;2023-11-21T09:03:48;147.48;;;46.50;;
51082;SDS011;37131;42.694;23.350;2023-11-21T09:06:15;142.27;;;47.08;;
51082;SDS011;37131;42.694;23.350;2023-11-21T09:08:40;142.25;;;46.20;;
51082;SDS011;37131;42.694;23.350;2023-11-21T09:11:07;145.95;;;47.05;;
51082;SDS011;37131;42.694;23.350;2023-11-21T09:13:33;138.77;;;46.45;;
51082;SDS011;37131;42.694;23.350;2023-11-21T09:15:59;141.63;;;47.53;;
51082;SDS011;37131;42.694;23.350;2023-11-21T09:18:25;139.80;;;45.97;;
51082;SDS011;37131;42.694;23.350;2023-11-21T09:20:50;143.50;;;47.38;;
51082;SDS011;37131;42.694;23.350;2023-11-21T09:23:16;144.95;;;48.08;;
51082;SDS011;37131;42.694;23.350;2023-11-21T09:25:41;149.05;;;48.63;;
51082;SDS011;37131;42.694;23.350;2023-11-21T09:28:11;151.05;;;48.03;;
51082;SDS011;37131;42.694;23.350;2023-11-21T09:30:37;152.75;;;47.40;;
51082;SDS011;37131;42.694;23.350;2023-11-21T09:33:03;158.30;;;51.60;;
51082;SDS011;37131;42.694;23.350;2023-11-21T09:35:32;166.52;;;52.25;;
51082;SDS011;37131;42.694;23.350;2023-11-21T09:37:57;156.45;;;49.78;;
51082;SDS011;37131;42.694;23.350;2023-11-21T09:40:23;151.50;;;48.67;;
51082;SDS011;37131;42.694;23.350;2023-11-21T09:42:51;151.40;;;46.80;;
51082;SDS011;37131;42.694;23.350;2023-11-21T09:45:29;151.43;;;47.88;;
51082;SDS011;37131;42.694;23.350;2023-11-21T09:47:59;153.95;;;48.50;;
51082;SDS011;37131;42.694;23.350;2023-11-21T09:50:26;156.52;;;48.60;;
51082;SDS011;37131;42.694;23.350;2023-11-21T09:55:43;158.05;;;48.40;;
51082;SDS011;37131;42.694;23.350;2023-11-21T09:58:11;183.10;;;49.88;;
51082;SDS011;37131;42.694;23.350;2023-11-21T10:00:41;182.02;;;51.80;;
51082;SDS011;37131;42.694;23.350;2023-11-21T10:03:08;176.95;;;49.90;;
51082;SDS011;37131;42.694;23.350;2023-11-21T10:05:34;165.95;;;49.78;;
51082;SDS011;37131;42.694;23.350;2023-11-21T10:08:00;174.50;;;51.30;;
51082;SDS011;37131;42.694;23.350;2023-11-21T10:10:26;180.30;;;51.42;;
51082;SDS011;37131;42.694;23.350;2023-11-21T10:12:54;179.02;;;52.17;;
51082;SDS011;37131;42.694;23.350;2023-11-21T10:15:22;185.50;;;53.78;;
51082;SDS011;37131;42.694;23.350;2023-11-21T10:17:51;179.98;;;51.35;;
51082;SDS011;37131;42.694;23.350;2023-11-21T10:20:19;176.60;;;49.83;;
51082;SDS011;37131;42.694;23.350;2023-11-21T10:22:44;177.48;;;49.83;;
51082;SDS011;37131;42.694;23.350;2023-11-21T10:25:11;179.20;;;50.47;;
51082;SDS011;37131;42.694;23.350;2023-11-21T10:27:39;179.25;;;51.00;;
51082;SDS011;37131;42.694;23.350;2023-11-21T10:30:09;181.38;;;51.75;;
51082;SDS011;37131;42.694;23.350;2023-11-21T10:32:41;177.25;;;49.97;;
51082;SDS011;37131;42.694;23.350;2023-11-21T10:35:07;181.00;;;51.17;;
51082;SDS011;37131;42.694;23.350;2023-11-21T10:37:35;189.27;;;51.10;;
51082;SDS011;37131;42.694;23.350;2023-11-21T10:40:04;181.32;;;51.58;;
51082;SDS011;37131;42.694;23.350;2023-11-21T10:42:37;196.48;;;55.10;;
51082;SDS011;37131;42.694;23.350;2023-11-21T10:45:04;190.77;;;51.95;;
51082;SDS011;37131;42.694;23.350;2023-11-21T10:47:37;198.80;;;52.63;;
51082;SDS011;37131;42.694;23.350;2023-11-21T10:50:03;194.55;;;55.40;;
51082;SDS011;37131;42.694;23.350;2023-11-21T10:52:29;179.70;;;52.20;;
51082;SDS011;37131;42.694;23.350;2023-11-21T10:54:54;190.82;;;56.45;;
51082;SDS011;37131;42.694;23.350;2023-11-21T10:57:20;190.27;;;53.63;;
51082;SDS011;37131;42.694;23.350;2023-11-21T10:59:48;176.93;;;53.05;;
51082;SDS011;37131;42.694;23.350;2023-11-21T11:02:24;173.60;;;53.70;;
51082;SDS011;37131;42.694;23.350;2023-11-21T11:04:53;181.77;;;55.33;;
51082;SDS011;37131;42.694;23.350;2023-11-21T11:07:26;198.77;;;54.35;;
51082;SDS011;37131;42.694;23.350;2023-11-21T11:09:53;187.20;;;54.42;;
51082;SDS011;37131;42.694;23.350;2023-11-21T11:12:20;190.90;;;56.08;;
51082;SDS011;37131;42.694;23.350;2023-11-21T11:14:45;197.27;;;57.92;;
51082;SDS011;37131;42.694;23.350;2023-11-21T11:17:12;188.05;;;54.22;;
51082;SDS011;37131;42.694;23.350;2023-11-21T11:19:38;191.57;;;56.53;;
51082;SDS011;37131;42.694;23.350;2023-11-21T11:28:02;200.20;;;56.10;;
51082;SDS011;37131;42.694;23.350;2023-11-21T11:36:06;188.52;;;55.20;;
51082;SDS011;37131;42.694;23.350;2023-11-21T11:38:38;198.48;;;56.08;;
51082;SDS011;37131;42.694;23.350;2023-11-21T11:41:04;200.10;;;55.78;;
51082;SDS011;37131;42.694;23.350;2023-11-21T11:43:32;199.93;;;57.10;;
51082;SDS011;37131;42.694;23.350;2023-11-21T11:46:02;195.13;;;56.67;;
51082;SDS011;37131;42.694;23.350;2023-11-21T11:48:34;192.73;;;55.45;;
51082;SDS011;37131;42.694;23.350;2023-11-21T11:53:38;200.82;;;58.00;;
51082;SDS011;37131;42.694;23.350;2023-11-21T11:56:39;198.05;;;56.13;;
51082;SDS011;37131;42.694;23.350;2023-11-21T11:59:03;202.60;;;56.63;;
51082;SDS011;37131;42.694;23.350;2023-11-21T12:01:30;202.23;;;57.15;;
51082;SDS011;37131;42.694;23.350;2023-11-21T12:07:00;194.80;;;58.03;;
51082;SDS011;37131;42.694;23.350;2023-11-21T12:09:30;197.38;;;54.85;;
51082;SDS011;37131;42.694;23.350;2023-11-21T12:11:56;192.45;;;55.63;;
51082;SDS011;37131;42.694;23.350;2023-11-21T12:14:22;193.13;;;55.70;;
51082;SDS011;37131;42.694;23.350;2023-11-21T12:16:48;193.18;;;55.28;;
51082;SDS011;37131;42.694;23.350;2023-11-21T12:19:14;203.35;;;60.72;;
51082;SDS011;37131;42.694;23.350;2023-11-21T12:21:40;206.40;;;58.28;;
51082;SDS011;37131;42.694;23.350;2023-11-21T12:24:13;200.07;;;57.10;;
51082;SDS011;37131;42.694;23.350;2023-11-21T12:26:42;198.25;;;55.25;;
51082;SDS011;37131;42.694;23.350;2023-11-21T12:29:09;206.65;;;58.35;;
51082;SDS011;37131;42.694;23.350;2023-11-21T12:31:35;208.48;;;57.50;;
51082;SDS011;37131;42.694;23.350;2023-11-21T12:34:01;205.52;;;59.92;;
51082;SDS011;37131;42.694;23.350;2023-11-21T12:36:26;195.38;;;56.28;;
51082;SDS011;37131;42.694;23.350;2023-11-21T12:38:54;208.43;;;60.63;;
51082;SDS011;37131;42.694;23.350;2023-11-21T12:41:19;210.55;;;58.95;;
51082;SDS011;37131;42.694;23.350;2023-11-21T12:43:46;203.93;;;59.83;;
51082;SDS011;37131;42.694;23.350;2023-11-21T12:46:12;199.63;;;58.40;;
51082;SDS011;37131;42.694;23.350;2023-11-21T12:48:39;198.93;;;57.20;;
51082;SDS011;37131;42.694;23.350;2023-11-21T12:51:09;196.23;;;56.05;;
51082;SDS011;37131;42.694;23.350;2023-11-21T12:53:43;186.93;;;53.88;;
51082;SDS011;37131;42.694;23.350;2023-11-21T12:56:12;184.90;;;52.15;;
51082;SDS011;37131;42.694;23.350;2023-11-21T12:58:40;196.88;;;57.35;;
51082;SDS011;37131;42.694;23.350;2023-11-21T13:01:12;189.50;;;53.35;;
51082;SDS011;37131;42.694;23.350;2023-11-21T13:03:42;191.20;;;53.47;;
51082;SDS011;37131;42.694;23.350;2023-11-21T13:06:10;197.13;;;56.33;;
51082;SDS011;37131;42.694;23.350;2023-11-21T13:08:37;194.20;;;55.45;;
51082;SDS011;37131;42.694;23.350;2023-11-21T13:11:04;200.18;;;55.20;;
51082;SDS011;37131;42.694;23.350;2023-11-21T13:13:31;196.40;;;54.25;;
51082;SDS011;37131;42.694;23.350;2023-11-21T13:15:58;198.23;;;53.65;;
51082;SDS011;37131;42.694;23.350;2023-11-21T13:18:31;194.15;;;53.35;;
51082;SDS011;37131;42.694;23.350;2023-11-21T13:20:59;191.88;;;54.92;;
51082;SDS011;37131;42.694;23.350;2023-11-21T13:23:27;196.77;;;55.38;;
51082;SDS011;37131;42.694;23.350;2023-11-21T13:25:54;186.02;;;54.30;;
51082;SDS011;37131;42.694;23.350;2023-11-21T13:28:20;194.23;;;58.50;;
51082;SDS011;37131;42.694;23.350;2023-11-21T13:30:49;190.55;;;53.83;;
51082;SDS011;37131;42.694;23.350;2023-11-21T13:33:17;197.85;;;54.72;;
51082;SDS011;37131;42.694;23.350;2023-11-21T13:35:52;199.40;;;54.80;;
51082;SDS011;37131;42.694;23.350;2023-11-21T13:38:18;201.23;;;57.03;;
51082;SDS011;37131;42.694;23.350;2023-11-21T13:40:52;203.15;;;57.85;;
51082;SDS011;37131;42.694;23.350;2023-11-21T13:43:19;208.27;;;57.40;;
51082;SDS011;37131;42.694;23.350;2023-11-21T13:45:47;193.85;;;57.60;;
51082;SDS011;37131;42.694;23.350;2023-11-21T13:48:17;227.60;;;59.78;;
51082;SDS011;37131;42.694;23.350;2023-11-21T13:50:50;192.65;;;57.53;;
51082;SDS011;37131;42.694;23.350;2023-11-21T13:53:24;201.27;;;58.85;;
51082;SDS011;37131;42.694;23.350;2023-11-21T13:58:16;202.80;;;55.88;;
51082;SDS011;37131;42.694;23.350;2023-11-21T14:00:49;193.55;;;55.92;;
51082;SDS011;37131;42.694;23.350;2023-11-21T14:03:22;183.70;;;52.22;;
51082;SDS011;37131;42.694;23.350;2023-11-21T14:05:57;191.15;;;53.13;;
51082;SDS011;37131;42.694;23.350;2023-11-21T14:08:25;197.20;;;56.10;;
51082;SDS011;37131;42.694;23.350;2023-11-21T14:10:53;194.75;;;54.60;;
51082;SDS011;37131;42.694;23.350;2023-11-21T14:13:23;189.18;;;53.72;;
51082;SDS011;37131;42.694;23.350;2023-11-21T14:15:49;185.90;;;53.22;;